createdAt,value
2019-04-04T00:02:23.001Z,49.63
2019-04-04T00:04:52.514Z,46.33
2019-04-04T00:07:21.275Z,46.33
2019-04-04T00:09:49.505Z,42.27
2019-04-04T00:12:17.764Z,39.75
2019-04-04T00:14:45.986Z,34.25
2019-04-04T00:17:14.226Z,33.75
2019-04-04T00:19:42.467Z,33.02
2019-04-04T00:22:10.704Z,29.57
2019-04-04T00:24:39.594Z,23.52
2019-04-04T00:27:08.243Z,28.62
2019-04-04T00:29:36.463Z,28.45
2019-04-04T00:32:04.712Z,24.70
2019-04-04T00:34:32.951Z,21.93
2019-04-04T00:37:04.344Z,23.12
2019-04-04T00:39:31.141Z,22.60
2019-04-04T00:41:59.396Z,22.37
2019-04-04T00:44:27.648Z,22.75
2019-04-04T00:46:55.885Z,22.93
2019-04-04T00:49:24.264Z,24.47
2019-04-04T00:51:52.496Z,22.35
2019-04-04T00:54:20.815Z,21.75
2019-04-04T00:56:49.324Z,20.32
2019-04-04T00:59:17.616Z,21.93
2019-04-04T01:01:46.283Z,16.50
2019-04-04T01:04:14.600Z,20.08
2019-04-04T01:06:42.832Z,22.13
2019-04-04T01:09:13.147Z,17.73
2019-04-04T01:11:41.023Z,18.12
2019-04-04T01:14:09.363Z,14.63
2019-04-04T01:16:38.216Z,15.72
2019-04-04T01:19:09.607Z,15.63
2019-04-04T01:21:36.854Z,16.70
2019-04-04T01:24:05.166Z,16.05
2019-04-04T01:26:35.179Z,16.32
2019-04-04T01:29:05.768Z,14.38
2019-04-04T01:31:33.476Z,15.55
2019-04-04T01:34:01.699Z,11.90
2019-04-04T01:36:30.741Z,14.38
2019-04-04T01:39:00.191Z,12.00
2019-04-04T01:41:29.266Z,12.37
2019-04-04T01:44:04.816Z,14.65
2019-04-04T01:46:27.599Z,14.13
2019-04-04T01:48:55.823Z,13.70
2019-04-04T01:51:25.393Z,14.25
2019-04-04T01:53:54.021Z,13.10
2019-04-04T01:56:22.250Z,13.68
2019-04-04T01:58:50.514Z,11.22
2019-04-04T02:01:18.740Z,13.68
2019-04-04T02:03:47.005Z,12.82
2019-04-04T02:06:15.291Z,11.83
2019-04-04T02:08:43.511Z,13.95
2019-04-04T02:11:12.562Z,13.40
2019-04-04T02:13:41.429Z,12.55
2019-04-04T02:16:09.819Z,14.95
2019-04-04T02:18:38.249Z,13.08
2019-04-04T02:21:06.475Z,13.15
2019-04-04T02:23:34.702Z,14.00
2019-04-04T02:26:04.703Z,13.40
2019-04-04T02:28:32.897Z,13.95
2019-04-04T02:31:01.555Z,14.30
2019-04-04T02:33:32.386Z,13.50
2019-04-04T02:36:00.549Z,13.95
2019-04-04T02:38:28.849Z,17.67
2019-04-04T02:40:57.164Z,13.10
2019-04-04T02:43:28.384Z,15.63
2019-04-04T02:45:55.592Z,14.25
2019-04-04T02:48:24.805Z,14.65
2019-04-04T02:50:53.196Z,16.02
2019-04-04T02:53:21.418Z,16.07
2019-04-04T02:55:49.669Z,16.07
2019-04-04T02:58:17.904Z,14.25
2019-04-04T03:00:47.087Z,17.35
2019-04-04T03:03:15.305Z,15.90
2019-04-04T03:05:43.785Z,15.45
2019-04-04T03:08:12.034Z,15.78
2019-04-04T03:10:40.272Z,14.60
2019-04-04T03:13:08.524Z,16.77
2019-04-04T03:15:40.840Z,16.77
2019-04-04T03:18:06.807Z,16.27
2019-04-04T03:20:35.899Z,17.27
2019-04-04T03:23:04.150Z,15.65
2019-04-04T03:25:32.392Z,16.97
2019-04-04T03:28:00.714Z,17.80
2019-04-04T03:30:28.956Z,18.87
2019-04-04T03:32:57.205Z,16.57
2019-04-04T03:35:27.738Z,15.13
2019-04-04T03:37:55.391Z,15.80
2019-04-04T03:40:25.571Z,17.85
2019-04-04T03:42:53.593Z,17.15
2019-04-04T03:45:26.069Z,16.70
2019-04-04T03:47:51.792Z,17.62
2019-04-04T03:50:20.097Z,15.48
2019-04-04T03:52:48.323Z,17.73
2019-04-04T03:55:16.583Z,16.87
2019-04-04T03:57:44.885Z,17.82
2019-04-04T04:00:30.043Z,17.65
2019-04-04T04:02:58.475Z,18.57
2019-04-04T04:05:34.077Z,20.05
2019-04-04T04:08:00.149Z,18.67
2019-04-04T04:10:32.299Z,18.17
2019-04-04T04:12:58.344Z,17.77
2019-04-04T04:15:29.235Z,18.42
2019-04-04T04:17:56.607Z,20.30
2019-04-04T04:20:24.859Z,19.42
2019-04-04T04:22:53.133Z,17.40
2019-04-04T04:25:21.561Z,20.08
2019-04-04T04:27:50.573Z,18.80
2019-04-04T04:30:18.799Z,19.35
2019-04-04T04:32:47.037Z,17.15
2019-04-04T04:35:15.462Z,16.85
2019-04-04T04:37:43.706Z,17.65
2019-04-04T04:40:14.954Z,18.85
2019-04-04T04:42:43.264Z,16.20
2019-04-04T04:45:12.518Z,18.62
2019-04-04T04:47:41.005Z,20.27
2019-04-04T04:50:09.990Z,18.82
2019-04-04T04:52:38.478Z,19.20
2019-04-04T04:55:06.747Z,17.75
2019-04-04T04:57:37.111Z,15.60
2019-04-04T05:00:05.500Z,18.73
2019-04-04T05:02:33.783Z,19.73
2019-04-04T05:05:02.102Z,18.30
2019-04-04T05:07:30.348Z,19.52
2019-04-04T05:09:58.702Z,21.60
2019-04-04T05:12:27.048Z,19.82
2019-04-04T05:14:55.447Z,22.02
2019-04-04T05:17:23.712Z,21.95
2019-04-04T05:19:52.105Z,17.50
2019-04-04T05:22:20.380Z,22.85
2019-04-04T05:25:06.986Z,21.95
2019-04-04T05:27:18.721Z,20.90
2019-04-04T05:29:47.149Z,20.95
2019-04-04T05:32:15.414Z,18.60
2019-04-04T05:34:43.661Z,23.27
2019-04-04T05:37:12.001Z,19.25
2019-04-04T05:39:40.458Z,24.23
2019-04-04T05:42:08.716Z,21.93
2019-04-04T05:44:36.912Z,20.77
2019-04-04T05:47:05.401Z,20.48
2019-04-04T05:49:33.613Z,18.62
2019-04-04T05:52:01.835Z,20.70
2019-04-04T05:54:30.103Z,21.70
2019-04-04T05:56:58.352Z,22.80
2019-04-04T05:59:26.650Z,19.02
2019-04-04T06:01:54.939Z,22.37
2019-04-04T06:04:23.151Z,23.57
2019-04-04T06:06:51.389Z,22.62
2019-04-04T06:09:19.679Z,23.65
2019-04-04T06:11:48.759Z,21.70
2019-04-04T06:14:17.084Z,19.27
2019-04-04T06:16:45.321Z,23.50
2019-04-04T06:19:14.827Z,23.45
2019-04-04T06:21:43.243Z,24.60
2019-04-04T06:24:11.482Z,27.13
2019-04-04T06:26:40.751Z,22.62
2019-04-04T06:29:08.984Z,22.80
2019-04-04T06:31:37.223Z,18.02
2019-04-04T06:34:05.991Z,21.97
2019-04-04T06:36:34.323Z,19.80
2019-04-04T06:39:02.558Z,23.30
2019-04-04T06:41:32.475Z,20.92
2019-04-04T06:44:00.744Z,19.05
2019-04-04T06:46:29.125Z,20.27
2019-04-04T06:48:57.408Z,19.10
2019-04-04T06:51:26.505Z,23.15
2019-04-04T06:53:54.743Z,16.10
2019-04-04T06:56:23.017Z,20.70
2019-04-04T06:58:51.235Z,20.32
2019-04-04T07:01:22.000Z,19.17
2019-04-04T07:03:49.405Z,20.02
2019-04-04T07:06:17.665Z,19.75
2019-04-04T07:08:46.854Z,19.98
2019-04-04T07:11:21.378Z,25.35
2019-04-04T07:13:45.492Z,21.20
2019-04-04T07:16:13.727Z,18.10
2019-04-04T07:18:42.996Z,19.37
2019-04-04T07:21:11.911Z,18.82
2019-04-04T07:23:41.813Z,19.85
2019-04-04T07:26:14.590Z,19.55
2019-04-04T07:28:40.253Z,20.40
2019-04-04T07:31:08.476Z,21.48
2019-04-04T07:33:36.903Z,16.57
2019-04-04T07:36:05.220Z,17.92
2019-04-04T07:38:35.016Z,19.30
2019-04-04T07:41:03.581Z,19.70
2019-04-04T07:43:31.804Z,16.62
2019-04-04T07:46:15.147Z,19.65
2019-04-04T07:48:29.983Z,17.45
2019-04-04T07:50:58.569Z,16.48
2019-04-04T07:53:28.379Z,19.10
2019-04-04T07:55:56.832Z,19.60
2019-04-04T07:58:25.090Z,15.10
2019-04-04T08:00:53.331Z,16.32
2019-04-04T08:03:21.596Z,17.25
2019-04-04T08:05:49.841Z,19.50
2019-04-04T08:08:18.460Z,16.75
2019-04-04T08:10:46.693Z,15.90
2019-04-04T08:13:14.922Z,13.15
2019-04-04T08:15:43.487Z,13.62
2019-04-04T08:18:11.719Z,15.58
2019-04-04T08:20:40.095Z,14.43
2019-04-04T08:23:08.534Z,12.90
2019-04-04T08:25:36.781Z,16.27
2019-04-04T08:28:05.010Z,14.60
2019-04-04T08:30:33.240Z,17.10
2019-04-04T08:33:01.472Z,16.00
2019-04-04T08:35:29.720Z,16.15
2019-04-04T08:37:57.977Z,17.65
2019-04-04T08:40:26.187Z,13.78
2019-04-04T08:42:54.403Z,16.90
2019-04-04T08:45:22.654Z,16.70
2019-04-04T08:47:51.066Z,15.08
2019-04-04T08:50:19.306Z,16.02
2019-04-04T08:52:47.528Z,14.28
2019-04-04T08:55:15.769Z,18.05
2019-04-04T08:57:44.004Z,13.15
2019-04-04T09:00:12.262Z,18.30
2019-04-04T09:02:40.498Z,16.40
2019-04-04T09:05:12.323Z,16.15
2019-04-04T09:07:38.824Z,15.43
2019-04-04T09:10:07.387Z,15.40
2019-04-04T09:12:35.693Z,17.50
2019-04-04T09:15:05.958Z,16.90
2019-04-04T09:17:34.311Z,16.27
2019-04-04T09:20:03.179Z,13.62
2019-04-04T09:22:31.642Z,14.35
2019-04-04T09:25:01.323Z,14.15
2019-04-04T09:27:29.964Z,14.38
2019-04-04T09:29:58.237Z,13.30
2019-04-04T09:32:26.487Z,16.95
2019-04-04T09:34:54.728Z,15.93
2019-04-04T09:37:23.050Z,13.68
2019-04-04T09:39:51.460Z,16.25
2019-04-04T09:42:19.812Z,16.27
2019-04-04T09:44:48.065Z,15.50
2019-04-04T09:47:16.316Z,16.27
2019-04-04T09:49:44.637Z,16.23
2019-04-04T09:52:12.870Z,13.62
2019-04-04T09:54:41.180Z,14.03
2019-04-04T09:57:09.575Z,13.55
2019-04-04T09:59:37.820Z,15.88
2019-04-04T10:02:06.075Z,13.10
2019-04-04T10:04:34.390Z,14.90
2019-04-04T10:07:02.665Z,13.43
2019-04-04T10:09:30.887Z,13.43
2019-04-04T10:11:59.133Z,14.00
2019-04-04T10:14:27.382Z,13.70
2019-04-04T10:16:55.623Z,13.80
2019-04-04T10:19:23.846Z,12.85
2019-04-04T10:21:52.095Z,13.43
2019-04-04T10:24:20.339Z,10.75
2019-04-04T10:26:48.659Z,13.32
2019-04-04T10:29:16.888Z,13.65
2019-04-04T10:31:45.705Z,14.15
2019-04-04T10:34:13.961Z,13.03
2019-04-04T10:36:42.557Z,14.10
2019-04-04T10:39:12.279Z,14.33
2019-04-04T10:41:41.250Z,13.28
2019-04-04T10:44:09.481Z,12.10
2019-04-04T10:46:37.818Z,11.20
2019-04-04T10:49:08.328Z,13.72
2019-04-04T10:51:36.135Z,12.98
2019-04-04T10:54:04.519Z,13.38
2019-04-04T10:56:32.904Z,13.70
2019-04-04T10:59:01.474Z,12.95
2019-04-04T11:01:29.851Z,15.38
2019-04-04T11:03:58.307Z,13.00
2019-04-04T11:06:26.592Z,13.03
2019-04-04T11:08:54.835Z,15.68
2019-04-04T11:11:23.063Z,14.28
2019-04-04T11:13:51.406Z,15.13
2019-04-04T11:16:29.493Z,16.65
2019-04-04T11:18:49.556Z,13.20
2019-04-04T11:21:18.070Z,16.32
2019-04-04T11:23:46.376Z,17.12
2019-04-04T11:26:14.643Z,17.80
2019-04-04T11:28:42.881Z,16.95
2019-04-04T11:31:11.109Z,15.43
2019-04-04T11:33:39.442Z,17.67
2019-04-04T11:36:07.775Z,18.17
2019-04-04T11:38:36.092Z,18.90
2019-04-04T11:41:04.325Z,16.30
2019-04-04T11:43:32.587Z,20.25
2019-04-04T11:46:01.065Z,15.40
2019-04-04T11:48:29.275Z,20.12
2019-04-04T11:50:57.508Z,22.37
2019-04-04T11:53:25.747Z,19.73
2019-04-04T11:55:54.018Z,19.05
2019-04-04T11:58:22.240Z,14.90
2019-04-04T12:00:52.223Z,19.42
2019-04-04T12:03:20.627Z,18.05
2019-04-04T12:05:48.969Z,19.80
2019-04-04T12:08:17.309Z,19.77
2019-04-04T12:10:45.599Z,20.95
2019-04-04T12:13:13.922Z,17.73
2019-04-04T12:15:42.393Z,17.77
2019-04-04T12:18:10.626Z,17.52
2019-04-04T12:20:38.856Z,15.78
2019-04-04T12:23:07.116Z,20.72
2019-04-04T12:25:35.435Z,16.57
2019-04-04T12:28:03.653Z,19.50
2019-04-04T12:30:31.920Z,19.55
2019-04-04T12:33:00.150Z,21.30
2019-04-04T12:35:28.377Z,21.42
2019-04-04T12:37:56.607Z,21.30
2019-04-04T12:40:24.836Z,21.75
2019-04-04T12:42:53.146Z,17.95
2019-04-04T12:45:21.597Z,20.90
2019-04-04T12:47:49.857Z,22.62
2019-04-04T12:50:18.088Z,27.48
2019-04-04T12:52:46.551Z,25.88
2019-04-04T12:55:14.878Z,28.23
2019-04-04T12:57:43.096Z,24.57
2019-04-04T13:00:11.336Z,23.98
2019-04-04T13:02:39.579Z,29.15
2019-04-04T13:05:08.176Z,30.85
2019-04-04T13:07:36.595Z,29.90
2019-04-04T13:10:11.772Z,23.22
2019-04-04T13:12:39.337Z,30.17
2019-04-04T13:15:09.073Z,32.78
2019-04-04T13:17:37.454Z,32.10
2019-04-04T13:20:06.983Z,31.50
2019-04-04T13:22:35.195Z,30.77
2019-04-04T13:25:05.276Z,31.87
2019-04-04T13:27:33.567Z,29.05
2019-04-04T13:30:01.879Z,28.30
2019-04-04T13:32:30.183Z,30.17
2019-04-04T13:34:59.802Z,29.65
2019-04-04T13:37:28.320Z,30.77
2019-04-04T13:39:56.570Z,31.55
2019-04-04T13:42:24.979Z,30.90
2019-04-04T13:44:53.565Z,32.88
2019-04-04T13:47:22.051Z,31.57
2019-04-04T13:49:50.321Z,29.48
2019-04-04T13:52:18.573Z,24.32
2019-04-04T13:54:46.792Z,26.85
2019-04-04T13:57:15.257Z,23.40
2019-04-04T13:59:43.513Z,29.10
2019-04-04T14:02:11.805Z,27.20
2019-04-04T14:04:40.257Z,29.52
2019-04-04T14:07:08.523Z,27.35
2019-04-04T14:09:36.791Z,25.12
2019-04-04T14:12:05.186Z,19.95
2019-04-04T14:14:33.429Z,19.73
2019-04-04T14:17:01.685Z,24.25
2019-04-04T14:19:31.543Z,22.40
2019-04-04T14:22:00.131Z,23.15
2019-04-04T14:24:28.369Z,22.65
2019-04-04T14:26:56.963Z,22.67
2019-04-04T14:29:27.764Z,22.07
2019-04-04T14:31:55.553Z,22.13
2019-04-04T14:34:23.776Z,23.20
2019-04-04T14:36:52.124Z,25.10
2019-04-04T14:39:20.372Z,24.32
2019-04-04T14:41:48.674Z,23.62
2019-04-04T14:44:16.901Z,24.23
2019-04-04T14:46:45.627Z,22.27
2019-04-04T14:49:14.545Z,26.30
2019-04-04T14:51:43.315Z,24.05
2019-04-04T14:54:11.728Z,24.02
2019-04-04T14:56:40.207Z,26.02
2019-04-04T14:59:08.585Z,19.70
2019-04-04T15:01:36.925Z,24.70
2019-04-04T15:04:05.172Z,24.55
2019-04-04T15:06:33.487Z,25.40
2019-04-04T15:09:01.847Z,18.80
2019-04-04T15:11:30.219Z,25.95
2019-04-04T15:13:58.451Z,20.92
2019-04-04T15:16:26.810Z,22.65
2019-04-04T15:18:55.255Z,21.00
2019-04-04T15:21:23.568Z,25.40
2019-04-04T15:23:51.902Z,23.38
2019-04-04T15:26:20.145Z,22.85
2019-04-04T15:28:48.567Z,24.63
2019-04-04T15:31:16.818Z,26.95
2019-04-04T15:33:45.036Z,28.25
2019-04-04T15:36:13.576Z,24.63
2019-04-04T15:38:41.877Z,29.23
2019-04-04T15:41:10.108Z,30.55
2019-04-04T15:43:38.353Z,27.02
2019-04-04T15:46:06.573Z,27.90
2019-04-04T15:48:34.816Z,31.25
2019-04-04T15:51:03.048Z,32.58
2019-04-04T15:53:31.279Z,25.10
2019-04-04T15:55:59.505Z,29.82
2019-04-04T15:58:27.779Z,30.48
2019-04-04T16:00:56.245Z,32.03
2019-04-04T16:03:24.457Z,33.65
2019-04-04T16:05:52.709Z,29.27
2019-04-04T16:08:20.951Z,35.13
2019-04-04T16:10:49.165Z,29.12
2019-04-04T16:13:17.496Z,27.32
2019-04-04T16:15:45.733Z,25.95
2019-04-04T16:18:13.974Z,25.65
2019-04-04T16:20:42.330Z,37.67
2019-04-04T16:23:10.779Z,25.95
2019-04-04T16:25:39.079Z,40.03
2019-04-04T16:28:07.307Z,29.60
2019-04-04T16:30:35.690Z,26.05
2019-04-04T16:33:03.924Z,27.80
2019-04-04T16:35:32.151Z,32.88
2019-04-04T16:38:00.456Z,30.10
2019-04-04T16:40:28.693Z,32.15
2019-04-04T16:42:56.936Z,28.10
2019-04-04T16:45:25.161Z,27.70
2019-04-04T16:47:53.556Z,37.88
2019-04-04T16:50:21.866Z,29.37
2019-04-04T16:52:50.081Z,37.15
2019-04-04T16:55:18.342Z,35.95
2019-04-04T16:57:46.634Z,30.10
2019-04-04T17:00:14.956Z,38.90
2019-04-04T17:02:43.212Z,32.53
2019-04-04T17:05:11.527Z,28.10
2019-04-04T17:07:39.888Z,26.85
2019-04-04T17:10:08.122Z,32.05
2019-04-04T17:12:36.517Z,27.98
2019-04-04T17:15:07.962Z,32.42
2019-04-04T17:17:36.966Z,25.68
2019-04-04T17:20:06.340Z,27.85
2019-04-04T17:22:34.821Z,26.97
2019-04-04T17:25:03.158Z,25.57
2019-04-04T17:27:31.377Z,32.48
2019-04-04T17:30:00.228Z,24.12
2019-04-04T17:32:28.759Z,25.40
2019-04-04T17:34:57.146Z,26.25
2019-04-04T17:37:25.408Z,24.45
2019-04-04T17:39:53.698Z,20.48
2019-04-04T17:42:29.178Z,18.12
2019-04-04T17:44:52.578Z,14.83
2019-04-04T17:47:21.315Z,14.20
2019-04-04T17:49:50.131Z,14.55
2019-04-04T17:52:19.588Z,15.18
2019-04-04T17:54:48.164Z,15.08
2019-04-04T17:57:16.845Z,13.20
2019-04-04T17:59:45.299Z,11.90
2019-04-04T18:02:13.603Z,12.68
2019-04-04T18:04:48.357Z,12.90
2019-04-04T18:07:11.804Z,14.40
2019-04-04T18:09:40.029Z,13.95
2019-04-04T18:12:08.275Z,11.48
2019-04-04T18:14:36.636Z,12.05
2019-04-04T18:17:04.956Z,11.30
2019-04-04T18:19:33.323Z,12.07
2019-04-04T18:22:01.630Z,12.50
2019-04-04T18:24:30.274Z,14.13
2019-04-04T18:26:58.572Z,12.07
2019-04-04T18:29:26.788Z,12.23
2019-04-04T18:31:55.027Z,12.82
2019-04-04T18:34:23.402Z,12.03
2019-04-04T18:36:51.940Z,11.88
2019-04-04T18:39:20.367Z,12.90
2019-04-04T18:41:48.633Z,11.88
2019-04-04T18:44:16.900Z,10.78
2019-04-04T18:46:45.117Z,9.88
2019-04-04T18:49:13.360Z,14.75
2019-04-04T18:51:41.604Z,11.15
2019-04-04T18:54:09.947Z,14.85
2019-04-04T18:56:38.308Z,15.70
2019-04-04T18:59:06.553Z,14.05
2019-04-04T19:01:34.777Z,12.75
2019-04-04T19:04:03.129Z,13.22
2019-04-04T19:06:31.436Z,14.55
2019-04-04T19:08:59.765Z,13.68
2019-04-04T19:11:28.177Z,9.78
2019-04-04T19:13:56.404Z,13.85
2019-04-04T19:16:24.696Z,14.75
2019-04-04T19:18:53.032Z,11.50
2019-04-04T19:21:21.491Z,11.10
2019-04-04T19:23:49.798Z,12.47
2019-04-04T19:26:18.211Z,13.25
2019-04-04T19:28:46.443Z,16.02
2019-04-04T19:31:14.740Z,12.63
2019-04-04T19:33:43.219Z,11.43
2019-04-04T19:36:11.458Z,11.55
2019-04-04T19:38:39.806Z,12.98
2019-04-04T19:41:08.169Z,14.75
2019-04-04T19:43:36.461Z,13.58
2019-04-04T19:46:05.013Z,15.85
2019-04-04T19:48:33.231Z,13.78
2019-04-04T19:51:01.584Z,13.58
2019-04-04T19:53:29.950Z,13.60
2019-04-04T19:55:58.186Z,13.43
2019-04-04T19:58:26.613Z,15.68
2019-04-04T20:00:55.273Z,14.35
2019-04-04T20:03:23.512Z,14.93
2019-04-04T20:05:51.849Z,19.02
2019-04-04T20:08:20.069Z,12.03
2019-04-04T20:10:48.304Z,14.50
2019-04-04T20:13:16.541Z,17.00
2019-04-04T20:15:44.804Z,16.85
2019-04-04T20:18:13.224Z,19.25
2019-04-04T20:20:41.454Z,20.97
2019-04-04T20:23:09.683Z,19.75
2019-04-04T20:25:37.914Z,22.07
2019-04-04T20:28:06.160Z,24.55
2019-04-04T20:30:38.711Z,23.20
2019-04-04T20:33:08.191Z,18.85
2019-04-04T20:35:36.424Z,19.65
2019-04-04T20:38:04.747Z,20.05
2019-04-04T20:40:32.967Z,16.27
2019-04-04T20:43:01.209Z,21.97
2019-04-04T20:45:29.446Z,18.23
2019-04-04T20:47:57.707Z,16.48
2019-04-04T20:50:25.972Z,19.20
2019-04-04T20:52:54.211Z,16.62
2019-04-04T20:55:22.470Z,16.57
2019-04-04T20:57:50.712Z,15.65
2019-04-04T21:00:18.948Z,19.27
2019-04-04T21:02:47.195Z,16.97
2019-04-04T21:05:15.420Z,16.48
2019-04-04T21:07:43.818Z,19.60
2019-04-04T21:10:12.045Z,18.67
2019-04-04T21:12:40.279Z,19.42
2019-04-04T21:15:08.515Z,19.85
2019-04-04T21:17:36.829Z,19.48
2019-04-04T21:20:06.683Z,23.85
2019-04-04T21:22:34.923Z,19.75
2019-04-04T21:25:03.349Z,19.57
2019-04-04T21:27:31.572Z,22.55
2019-04-04T21:29:59.864Z,15.98
2019-04-04T21:32:28.113Z,21.77
2019-04-04T21:34:56.345Z,20.65
2019-04-04T21:37:24.592Z,19.73
2019-04-04T21:39:52.845Z,22.20
2019-04-04T21:42:21.069Z,22.93
2019-04-04T21:44:49.303Z,20.85
2019-04-04T21:47:17.535Z,21.57
2019-04-04T21:49:45.867Z,23.20
2019-04-04T21:52:14.252Z,23.80
2019-04-04T21:54:42.524Z,22.15
2019-04-04T21:57:10.749Z,17.67
2019-04-04T21:59:38.981Z,23.52
2019-04-04T22:02:07.425Z,23.87
2019-04-04T22:04:35.833Z,23.25
2019-04-04T22:07:04.065Z,20.75
2019-04-04T22:09:33.710Z,26.48
2019-04-04T22:12:02.205Z,23.65
2019-04-04T22:14:30.440Z,24.37
2019-04-04T22:16:58.684Z,26.27
2019-04-04T22:19:26.933Z,27.77
2019-04-04T22:21:55.173Z,31.05
2019-04-04T22:24:23.389Z,27.25
2019-04-04T22:26:51.623Z,31.77
2019-04-04T22:29:19.999Z,36.93
2019-04-04T22:31:48.235Z,31.73
2019-04-04T22:34:16.462Z,29.80
2019-04-04T22:36:44.697Z,29.80
2019-04-04T22:39:12.919Z,35.00
2019-04-04T22:41:41.155Z,31.95
2019-04-04T22:44:09.455Z,30.32
2019-04-04T22:46:37.702Z,29.87
2019-04-04T22:49:05.916Z,34.30
2019-04-04T22:51:34.167Z,30.65
2019-04-04T22:54:02.550Z,26.52
2019-04-04T22:56:30.804Z,27.58
2019-04-04T22:58:59.019Z,29.60
2019-04-04T23:01:29.123Z,25.72
2019-04-04T23:03:57.192Z,26.07
2019-04-04T23:06:34.482Z,29.15
2019-04-04T23:08:55.655Z,28.05
2019-04-04T23:11:23.917Z,27.30
2019-04-04T23:13:52.159Z,32.67
2019-04-04T23:16:20.507Z,28.02
2019-04-04T23:18:48.747Z,36.85
2019-04-04T23:21:16.960Z,32.35
2019-04-04T23:23:45.186Z,30.80
2019-04-04T23:26:13.417Z,41.02
2019-04-04T23:28:41.643Z,33.13
2019-04-04T23:31:09.863Z,38.33
2019-04-04T23:33:38.095Z,42.85
2019-04-04T23:36:06.505Z,40.12
2019-04-04T23:38:35.772Z,37.10
2019-04-04T23:41:04.003Z,34.65
2019-04-04T23:43:32.351Z,47.00
2019-04-04T23:46:00.538Z,35.15
2019-04-04T23:48:28.762Z,39.23
2019-04-04T23:50:56.998Z,38.83
2019-04-04T23:53:25.214Z,49.05
2019-04-04T23:55:53.458Z,36.00
2019-04-04T23:58:21.795Z,42.70
